sensor_id;sensor_type;location;lat;lon;timestamp;P1;durP1;ratioP1;P2;durP2;ratioP2
19036;SDS011;9651;49.138;8.900;2023-03-26T00:01:15;2.83;;;0.90;;
19036;SDS011;9651;49.138;8.900;2023-03-26T00:05:19;3.50;;;1.10;;
19036;SDS011;9651;49.138;8.900;2023-03-26T00:09:21;3.20;;;1.00;;
19036;SDS011;9651;49.138;8.900;2023-03-26T00:13:23;3.83;;;1.10;;
19036;SDS011;9651;49.138;8.900;2023-03-26T00:17:25;3.47;;;1.10;;
19036;SDS011;9651;49.138;8.900;2023-03-26T00:21:29;5.87;;;1.10;;
19036;SDS011;9651;49.138;8.900;2023-03-26T00:25:31;2.90;;;1.00;;
19036;SDS011;9651;49.138;8.900;2023-03-26T00:29:34;6.97;;;1.40;;
19036;SDS011;9651;49.138;8.900;2023-03-26T00:33:36;7.73;;;3.37;;
19036;SDS011;9651;49.138;8.900;2023-03-26T00:37:41;7.33;;;3.47;;
19036;SDS011;9651;49.138;8.900;2023-03-26T00:41:45;12.27;;;5.63;;
19036;SDS011;9651;49.138;8.900;2023-03-26T00:45:47;7.00;;;2.60;;
19036;SDS011;9651;49.138;8.900;2023-03-26T00:49:50;6.37;;;2.80;;
19036;SDS011;9651;49.138;8.900;2023-03-26T00:53:53;6.10;;;2.20;;
19036;SDS011;9651;49.138;8.900;2023-03-26T00:57:55;3.63;;;2.00;;
19036;SDS011;9651;49.138;8.900;2023-03-26T01:01:57;9.27;;;2.43;;
19036;SDS011;9651;49.138;8.900;2023-03-26T01:05:59;6.53;;;2.60;;
19036;SDS011;9651;49.138;8.900;2023-03-26T01:10:06;4.90;;;1.70;;
19036;SDS011;9651;49.138;8.900;2023-03-26T01:14:09;6.67;;;1.83;;
19036;SDS011;9651;49.138;8.900;2023-03-26T01:18:13;4.60;;;1.70;;
19036;SDS011;9651;49.138;8.900;2023-03-26T01:22:16;4.00;;;1.70;;
19036;SDS011;9651;49.138;8.900;2023-03-26T01:26:26;5.80;;;2.30;;
19036;SDS011;9651;49.138;8.900;2023-03-26T01:30:41;5.10;;;2.20;;
19036;SDS011;9651;49.138;8.900;2023-03-26T01:34:51;6.43;;;2.30;;
19036;SDS011;9651;49.138;8.900;2023-03-26T01:39:08;6.70;;;2.67;;
19036;SDS011;9651;49.138;8.900;2023-03-26T01:43:23;7.33;;;2.80;;
19036;SDS011;9651;49.138;8.900;2023-03-26T01:47:29;7.40;;;2.33;;
19036;SDS011;9651;49.138;8.900;2023-03-26T01:51:33;4.10;;;2.30;;
19036;SDS011;9651;49.138;8.900;2023-03-26T01:55:38;4.47;;;2.10;;
19036;SDS011;9651;49.138;8.900;2023-03-26T01:59:53;4.70;;;1.67;;
19036;SDS011;9651;49.138;8.900;2023-03-26T02:04:16;4.97;;;2.33;;
19036;SDS011;9651;49.138;8.900;2023-03-26T02:08:26;5.50;;;1.97;;
19036;SDS011;9651;49.138;8.900;2023-03-26T02:12:35;6.30;;;2.67;;
19036;SDS011;9651;49.138;8.900;2023-03-26T02:16:39;7.17;;;2.60;;
19036;SDS011;9651;49.138;8.900;2023-03-26T02:20:45;7.67;;;3.77;;
19036;SDS011;9651;49.138;8.900;2023-03-26T02:24:47;10.47;;;4.67;;
19036;SDS011;9651;49.138;8.900;2023-03-26T02:28:49;11.80;;;4.33;;
19036;SDS011;9651;49.138;8.900;2023-03-26T02:32:53;8.60;;;3.90;;
19036;SDS011;9651;49.138;8.900;2023-03-26T02:36:58;5.13;;;2.80;;
19036;SDS011;9651;49.138;8.900;2023-03-26T02:41:01;4.37;;;2.00;;
19036;SDS011;9651;49.138;8.900;2023-03-26T02:45:17;3.60;;;1.90;;
19036;SDS011;9651;49.138;8.900;2023-03-26T02:49:38;5.23;;;1.80;;
19036;SDS011;9651;49.138;8.900;2023-03-26T02:53:40;5.00;;;1.50;;
19036;SDS011;9651;49.138;8.900;2023-03-26T02:57:59;4.97;;;1.67;;
19036;SDS011;9651;49.138;8.900;2023-03-26T03:02:08;3.47;;;1.80;;
19036;SDS011;9651;49.138;8.900;2023-03-26T03:06:12;3.20;;;1.50;;
19036;SDS011;9651;49.138;8.900;2023-03-26T03:10:20;6.00;;;1.70;;
19036;SDS011;9651;49.138;8.900;2023-03-26T03:14:35;5.00;;;1.80;;
19036;SDS011;9651;49.138;8.900;2023-03-26T03:18:37;5.30;;;1.90;;
19036;SDS011;9651;49.138;8.900;2023-03-26T03:22:41;5.53;;;1.87;;
19036;SDS011;9651;49.138;8.900;2023-03-26T03:26:43;4.07;;;1.70;;
19036;SDS011;9651;49.138;8.900;2023-03-26T03:31:05;6.10;;;1.47;;
19036;SDS011;9651;49.138;8.900;2023-03-26T03:35:10;4.13;;;1.70;;
19036;SDS011;9651;49.138;8.900;2023-03-26T03:39:16;5.30;;;1.37;;
19036;SDS011;9651;49.138;8.900;2023-03-26T03:43:18;8.10;;;1.97;;
19036;SDS011;9651;49.138;8.900;2023-03-26T03:47:42;8.77;;;1.87;;
19036;SDS011;9651;49.138;8.900;2023-03-26T03:51:47;3.30;;;1.67;;
19036;SDS011;9651;49.138;8.900;2023-03-26T03:56:02;8.77;;;2.07;;
19036;SDS011;9651;49.138;8.900;2023-03-26T04:00:38;4.57;;;1.87;;
19036;SDS011;9651;49.138;8.900;2023-03-26T04:04:59;3.13;;;2.40;;
19036;SDS011;9651;49.138;8.900;2023-03-26T04:09:02;5.43;;;1.80;;
19036;SDS011;9651;49.138;8.900;2023-03-26T04:13:06;3.30;;;1.70;;
19036;SDS011;9651;49.138;8.900;2023-03-26T04:17:37;4.63;;;2.77;;
19036;SDS011;9651;49.138;8.900;2023-03-26T04:21:43;3.47;;;1.57;;
19036;SDS011;9651;49.138;8.900;2023-03-26T04:25:47;4.80;;;2.03;;
19036;SDS011;9651;49.138;8.900;2023-03-26T04:29:55;1.83;;;1.70;;
19036;SDS011;9651;49.138;8.900;2023-03-26T04:33:58;4.27;;;1.80;;
19036;SDS011;9651;49.138;8.900;2023-03-26T04:38:12;4.97;;;2.07;;
19036;SDS011;9651;49.138;8.900;2023-03-26T04:42:19;8.07;;;1.67;;
19036;SDS011;9651;49.138;8.900;2023-03-26T04:46:35;4.60;;;1.83;;
19036;SDS011;9651;49.138;8.900;2023-03-26T04:50:44;3.37;;;1.50;;
19036;SDS011;9651;49.138;8.900;2023-03-26T04:54:47;4.57;;;1.50;;
19036;SDS011;9651;49.138;8.900;2023-03-26T04:58:51;8.33;;;1.80;;
19036;SDS011;9651;49.138;8.900;2023-03-26T05:02:59;4.97;;;1.67;;
19036;SDS011;9651;49.138;8.900;2023-03-26T05:07:01;6.07;;;1.70;;
19036;SDS011;9651;49.138;8.900;2023-03-26T05:11:13;2.93;;;1.63;;
19036;SDS011;9651;49.138;8.900;2023-03-26T05:15:15;4.93;;;1.60;;
19036;SDS011;9651;49.138;8.900;2023-03-26T05:19:44;6.90;;;2.83;;
19036;SDS011;9651;49.138;8.900;2023-03-26T05:23:47;5.17;;;1.60;;
19036;SDS011;9651;49.138;8.900;2023-03-26T05:27:52;5.17;;;1.57;;
19036;SDS011;9651;49.138;8.900;2023-03-26T05:31:57;2.73;;;1.30;;
19036;SDS011;9651;49.138;8.900;2023-03-26T05:36:00;6.33;;;1.60;;
19036;SDS011;9651;49.138;8.900;2023-03-26T05:40:06;5.37;;;1.80;;
19036;SDS011;9651;49.138;8.900;2023-03-26T05:44:18;3.13;;;1.20;;
19036;SDS011;9651;49.138;8.900;2023-03-26T05:48:21;5.40;;;1.50;;
19036;SDS011;9651;49.138;8.900;2023-03-26T05:52:25;3.67;;;1.70;;
19036;SDS011;9651;49.138;8.900;2023-03-26T05:56:45;6.07;;;1.70;;
19036;SDS011;9651;49.138;8.900;2023-03-26T06:01:06;8.63;;;1.40;;
19036;SDS011;9651;49.138;8.900;2023-03-26T06:05:30;5.40;;;1.47;;
19036;SDS011;9651;49.138;8.900;2023-03-26T06:09:57;5.90;;;1.37;;
19036;SDS011;9651;49.138;8.900;2023-03-26T06:14:00;4.40;;;1.20;;
19036;SDS011;9651;49.138;8.900;2023-03-26T06:18:03;3.77;;;1.27;;
19036;SDS011;9651;49.138;8.900;2023-03-26T06:22:15;2.80;;;1.17;;
19036;SDS011;9651;49.138;8.900;2023-03-26T06:26:57;3.67;;;1.57;;
19036;SDS011;9651;49.138;8.900;2023-03-26T06:31:17;5.13;;;2.27;;
19036;SDS011;9651;49.138;8.900;2023-03-26T06:35:28;7.33;;;2.47;;
19036;SDS011;9651;49.138;8.900;2023-03-26T06:39:30;5.60;;;2.40;;
19036;SDS011;9651;49.138;8.900;2023-03-26T06:43:49;3.87;;;2.17;;
19036;SDS011;9651;49.138;8.900;2023-03-26T06:48:11;7.17;;;2.60;;
19036;SDS011;9651;49.138;8.900;2023-03-26T06:52:21;7.00;;;2.20;;
19036;SDS011;9651;49.138;8.900;2023-03-26T06:56:42;5.67;;;1.97;;
19036;SDS011;9651;49.138;8.900;2023-03-26T07:01:00;5.93;;;1.40;;
19036;SDS011;9651;49.138;8.900;2023-03-26T07:05:40;3.93;;;1.60;;
19036;SDS011;9651;49.138;8.900;2023-03-26T07:10:06;5.40;;;2.50;;
19036;SDS011;9651;49.138;8.900;2023-03-26T07:14:23;8.53;;;1.33;;
19036;SDS011;9651;49.138;8.900;2023-03-26T07:18:51;5.07;;;1.60;;
19036;SDS011;9651;49.138;8.900;2023-03-26T07:22:56;6.77;;;1.23;;
19036;SDS011;9651;49.138;8.900;2023-03-26T07:27:09;3.70;;;1.10;;
19036;SDS011;9651;49.138;8.900;2023-03-26T07:31:20;3.20;;;1.20;;
19036;SDS011;9651;49.138;8.900;2023-03-26T07:36:05;3.63;;;1.50;;
19036;SDS011;9651;49.138;8.900;2023-03-26T07:40:35;8.27;;;1.80;;
19036;SDS011;9651;49.138;8.900;2023-03-26T07:45:22;6.47;;;1.70;;
19036;SDS011;9651;49.138;8.900;2023-03-26T07:49:45;6.83;;;1.27;;
19036;SDS011;9651;49.138;8.900;2023-03-26T07:53:59;6.63;;;2.20;;
19036;SDS011;9651;49.138;8.900;2023-03-26T07:58:25;6.27;;;1.87;;
19036;SDS011;9651;49.138;8.900;2023-03-26T08:03:12;6.03;;;2.00;;
19036;SDS011;9651;49.138;8.900;2023-03-26T08:08:01;5.47;;;1.90;;
19036;SDS011;9651;49.138;8.900;2023-03-26T08:12:23;3.50;;;1.40;;
19036;SDS011;9651;49.138;8.900;2023-03-26T08:16:35;5.17;;;1.57;;
19036;SDS011;9651;49.138;8.900;2023-03-26T08:20:42;6.47;;;1.80;;
19036;SDS011;9651;49.138;8.900;2023-03-26T08:24:50;5.77;;;2.83;;
19036;SDS011;9651;49.138;8.900;2023-03-26T08:29:08;8.87;;;1.57;;
19036;SDS011;9651;49.138;8.900;2023-03-26T08:33:17;3.20;;;1.37;;
19036;SDS011;9651;49.138;8.900;2023-03-26T08:37:20;5.10;;;2.13;;
19036;SDS011;9651;49.138;8.900;2023-03-26T08:41:38;2.60;;;1.70;;
19036;SDS011;9651;49.138;8.900;2023-03-26T08:46:11;3.90;;;0.97;;
19036;SDS011;9651;49.138;8.900;2023-03-26T08:50:49;6.37;;;1.60;;
19036;SDS011;9651;49.138;8.900;2023-03-26T08:55:19;7.17;;;1.43;;
19036;SDS011;9651;49.138;8.900;2023-03-26T08:59:54;6.87;;;1.53;;
19036;SDS011;9651;49.138;8.900;2023-03-26T09:04:30;5.43;;;1.30;;
19036;SDS011;9651;49.138;8.900;2023-03-26T09:17:53;4.70;;;1.50;;
19036;SDS011;9651;49.138;8.900;2023-03-26T09:27:02;6.07;;;1.50;;
19036;SDS011;9651;49.138;8.900;2023-03-26T09:31:21;7.13;;;1.63;;
19036;SDS011;9651;49.138;8.900;2023-03-26T09:35:49;3.37;;;1.23;;
19036;SDS011;9651;49.138;8.900;2023-03-26T09:39:59;4.93;;;2.03;;
19036;SDS011;9651;49.138;8.900;2023-03-26T09:48:53;3.23;;;1.27;;
19036;SDS011;9651;49.138;8.900;2023-03-26T09:53:31;1.60;;;1.00;;
19036;SDS011;9651;49.138;8.900;2023-03-26T09:57:54;7.17;;;1.40;;
19036;SDS011;9651;49.138;8.900;2023-03-26T10:02:36;2.73;;;1.57;;
19036;SDS011;9651;49.138;8.900;2023-03-26T10:06:55;3.83;;;1.47;;
19036;SDS011;9651;49.138;8.900;2023-03-26T10:11:02;2.23;;;1.10;;
19036;SDS011;9651;49.138;8.900;2023-03-26T10:15:13;3.13;;;1.07;;
19036;SDS011;9651;49.138;8.900;2023-03-26T10:19:30;4.77;;;2.30;;
19036;SDS011;9651;49.138;8.900;2023-03-26T10:23:52;3.40;;;1.27;;
19036;SDS011;9651;49.138;8.900;2023-03-26T10:28:08;3.40;;;1.90;;
19036;SDS011;9651;49.138;8.900;2023-03-26T10:32:24;3.70;;;1.70;;
19036;SDS011;9651;49.138;8.900;2023-03-26T10:36:35;4.97;;;1.43;;
19036;SDS011;9651;49.138;8.900;2023-03-26T10:40:40;3.73;;;1.90;;
19036;SDS011;9651;49.138;8.900;2023-03-26T10:44:59;5.17;;;1.60;;
19036;SDS011;9651;49.138;8.900;2023-03-26T10:53:45;3.78;;;1.30;;
19036;SDS011;9651;49.138;8.900;2023-03-26T10:57:51;2.72;;;1.23;;
19036;SDS011;9651;49.138;8.900;2023-03-26T11:01:59;2.33;;;0.80;;
19036;SDS011;9651;49.138;8.900;2023-03-26T11:06:16;2.78;;;1.40;;
19036;SDS011;9651;49.138;8.900;2023-03-26T11:10:34;1.55;;;1.05;;
19036;SDS011;9651;49.138;8.900;2023-03-26T11:14:46;3.33;;;1.38;;
19036;SDS011;9651;49.138;8.900;2023-03-26T11:18:56;1.42;;;0.80;;
19036;SDS011;9651;49.138;8.900;2023-03-26T11:23:09;1.55;;;1.15;;
19036;SDS011;9651;49.138;8.900;2023-03-26T11:27:30;1.35;;;0.47;;
19036;SDS011;9651;49.138;8.900;2023-03-26T11:31:46;2.20;;;0.70;;
19036;SDS011;9651;49.138;8.900;2023-03-26T11:35:55;4.22;;;0.70;;
19036;SDS011;9651;49.138;8.900;2023-03-26T11:40:02;1.73;;;0.45;;
19036;SDS011;9651;49.138;8.900;2023-03-26T11:44:17;3.10;;;0.65;;
19036;SDS011;9651;49.138;8.900;2023-03-26T11:48:22;2.00;;;0.55;;
19036;SDS011;9651;49.138;8.900;2023-03-26T11:52:28;2.60;;;0.73;;
19036;SDS011;9651;49.138;8.900;2023-03-26T11:56:30;3.55;;;0.80;;
19036;SDS011;9651;49.138;8.900;2023-03-26T12:00:35;2.05;;;0.90;;
19036;SDS011;9651;49.138;8.900;2023-03-26T12:04:39;1.58;;;1.02;;
19036;SDS011;9651;49.138;8.900;2023-03-26T12:08:43;1.77;;;0.50;;
19036;SDS011;9651;49.138;8.900;2023-03-26T12:12:48;2.92;;;0.70;;
19036;SDS011;9651;49.138;8.900;2023-03-26T12:17:02;1.63;;;0.63;;
19036;SDS011;9651;49.138;8.900;2023-03-26T12:21:07;2.88;;;0.70;;
19036;SDS011;9651;49.138;8.900;2023-03-26T12:25:13;1.92;;;0.47;;
19036;SDS011;9651;49.138;8.900;2023-03-26T12:29:16;3.38;;;0.90;;
19036;SDS011;9651;49.138;8.900;2023-03-26T12:33:21;2.60;;;0.68;;
19036;SDS011;9651;49.138;8.900;2023-03-26T12:37:33;1.60;;;0.57;;
19036;SDS011;9651;49.138;8.900;2023-03-26T12:41:38;3.25;;;0.80;;
19036;SDS011;9651;49.138;8.900;2023-03-26T12:45:41;1.60;;;0.60;;
19036;SDS011;9651;49.138;8.900;2023-03-26T12:49:45;2.47;;;0.90;;
19036;SDS011;9651;49.138;8.900;2023-03-26T12:53:53;5.88;;;1.10;;
19036;SDS011;9651;49.138;8.900;2023-03-26T12:58:17;2.55;;;0.98;;
19036;SDS011;9651;49.138;8.900;2023-03-26T13:02:32;2.25;;;0.60;;
19036;SDS011;9651;49.138;8.900;2023-03-26T13:06:59;2.85;;;1.20;;
19036;SDS011;9651;49.138;8.900;2023-03-26T13:11:09;3.15;;;1.00;;
19036;SDS011;9651;49.138;8.900;2023-03-26T13:15:21;3.60;;;0.85;;
19036;SDS011;9651;49.138;8.900;2023-03-26T13:19:28;1.08;;;0.60;;
19036;SDS011;9651;49.138;8.900;2023-03-26T13:23:42;3.92;;;0.70;;
19036;SDS011;9651;49.138;8.900;2023-03-26T13:27:53;2.78;;;0.70;;
19036;SDS011;9651;49.138;8.900;2023-03-26T13:32:04;2.38;;;1.10;;
19036;SDS011;9651;49.138;8.900;2023-03-26T13:36:15;2.22;;;0.95;;
19036;SDS011;9651;49.138;8.900;2023-03-26T13:40:23;4.28;;;1.08;;
19036;SDS011;9651;49.138;8.900;2023-03-26T13:44:35;3.00;;;0.95;;
19036;SDS011;9651;49.138;8.900;2023-03-26T13:48:46;4.70;;;1.20;;
19036;SDS011;9651;49.138;8.900;2023-03-26T13:52:53;3.65;;;0.93;;
19036;SDS011;9651;49.138;8.900;2023-03-26T13:57:01;2.90;;;0.80;;
19036;SDS011;9651;49.138;8.900;2023-03-26T14:01:11;2.40;;;0.80;;
19036;SDS011;9651;49.138;8.900;2023-03-26T14:05:18;2.95;;;0.90;;
19036;SDS011;9651;49.138;8.900;2023-03-26T14:09:26;3.05;;;0.80;;
19036;SDS011;9651;49.138;8.900;2023-03-26T14:13:34;4.10;;;0.70;;
19036;SDS011;9651;49.138;8.900;2023-03-26T14:17:42;4.07;;;0.60;;
19036;SDS011;9651;49.138;8.900;2023-03-26T14:21:52;5.70;;;0.90;;
19036;SDS011;9651;49.138;8.900;2023-03-26T14:26:15;1.83;;;0.80;;
19036;SDS011;9651;49.138;8.900;2023-03-26T14:30:40;4.20;;;0.80;;
19036;SDS011;9651;49.138;8.900;2023-03-26T14:35:01;2.67;;;0.67;;
19036;SDS011;9651;49.138;8.900;2023-03-26T14:39:15;1.70;;;0.90;;
19036;SDS011;9651;49.138;8.900;2023-03-26T14:48:13;4.07;;;0.70;;
19036;SDS011;9651;49.138;8.900;2023-03-26T14:52:39;4.40;;;0.80;;
19036;SDS011;9651;49.138;8.900;2023-03-26T14:56:50;4.10;;;0.80;;
19036;SDS011;9651;49.138;8.900;2023-03-26T15:01:14;5.50;;;1.20;;
19036;SDS011;9651;49.138;8.900;2023-03-26T15:05:43;4.53;;;1.50;;
19036;SDS011;9651;49.138;8.900;2023-03-26T15:10:15;1.73;;;0.50;;
19036;SDS011;9651;49.138;8.900;2023-03-26T15:14:42;1.27;;;0.47;;
19036;SDS011;9651;49.138;8.900;2023-03-26T15:19:25;2.57;;;0.40;;
19036;SDS011;9651;49.138;8.900;2023-03-26T15:24:03;1.07;;;0.50;;
19036;SDS011;9651;49.138;8.900;2023-03-26T15:28:38;1.17;;;0.50;;
19036;SDS011;9651;49.138;8.900;2023-03-26T15:33:26;1.20;;;0.50;;
19036;SDS011;9651;49.138;8.900;2023-03-26T15:43:02;1.13;;;0.30;;
19036;SDS011;9651;49.138;8.900;2023-03-26T15:47:30;2.63;;;0.40;;
19036;SDS011;9651;49.138;8.900;2023-03-26T15:51:56;2.53;;;0.50;;
19036;SDS011;9651;49.138;8.900;2023-03-26T15:56:09;0.70;;;0.40;;
19036;SDS011;9651;49.138;8.900;2023-03-26T16:00:21;0.50;;;0.40;;
19036;SDS011;9651;49.138;8.900;2023-03-26T16:04:28;1.10;;;0.50;;
19036;SDS011;9651;49.138;8.900;2023-03-26T16:08:45;0.20;;;0.20;;
19036;SDS011;9651;49.138;8.900;2023-03-26T16:22:40;1.23;;;0.50;;
19036;SDS011;9651;49.138;8.900;2023-03-26T16:26:52;0.80;;;0.40;;
19036;SDS011;9651;49.138;8.900;2023-03-26T16:35:49;3.80;;;0.60;;
19036;SDS011;9651;49.138;8.900;2023-03-26T16:44:35;1.80;;;0.63;;
19036;SDS011;9651;49.138;8.900;2023-03-26T16:48:46;2.57;;;1.00;;
19036;SDS011;9651;49.138;8.900;2023-03-26T16:52:59;2.00;;;0.60;;
19036;SDS011;9651;49.138;8.900;2023-03-26T16:57:26;1.00;;;0.50;;
19036;SDS011;9651;49.138;8.900;2023-03-26T17:01:36;0.50;;;0.43;;
19036;SDS011;9651;49.138;8.900;2023-03-26T17:05:49;2.83;;;0.57;;
19036;SDS011;9651;49.138;8.900;2023-03-26T17:10:08;1.17;;;0.30;;
19036;SDS011;9651;49.138;8.900;2023-03-26T17:14:21;2.60;;;0.60;;
19036;SDS011;9651;49.138;8.900;2023-03-26T17:18:33;2.33;;;0.60;;
19036;SDS011;9651;49.138;8.900;2023-03-26T17:22:40;0.57;;;0.37;;
19036;SDS011;9651;49.138;8.900;2023-03-26T17:27:19;0.87;;;0.60;;
19036;SDS011;9651;49.138;8.900;2023-03-26T17:31:33;1.73;;;0.43;;
19036;SDS011;9651;49.138;8.900;2023-03-26T17:35:41;1.63;;;0.50;;
19036;SDS011;9651;49.138;8.900;2023-03-26T17:44:45;0.90;;;0.60;;
19036;SDS011;9651;49.138;8.900;2023-03-26T17:48:51;1.90;;;0.70;;
19036;SDS011;9651;49.138;8.900;2023-03-26T17:53:00;1.47;;;0.50;;
19036;SDS011;9651;49.138;8.900;2023-03-26T17:57:05;3.00;;;0.77;;
19036;SDS011;9651;49.138;8.900;2023-03-26T18:01:20;0.77;;;0.40;;
19036;SDS011;9651;49.138;8.900;2023-03-26T18:05:25;1.60;;;0.50;;
19036;SDS011;9651;49.138;8.900;2023-03-26T18:09:36;2.00;;;0.70;;
19036;SDS011;9651;49.138;8.900;2023-03-26T18:18:26;1.13;;;0.40;;
19036;SDS011;9651;49.138;8.900;2023-03-26T18:22:35;1.10;;;0.50;;
19036;SDS011;9651;49.138;8.900;2023-03-26T18:26:38;1.53;;;0.63;;
19036;SDS011;9651;49.138;8.900;2023-03-26T18:30:43;1.00;;;0.57;;
19036;SDS011;9651;49.138;8.900;2023-03-26T18:34:56;1.77;;;1.67;;
19036;SDS011;9651;49.138;8.900;2023-03-26T18:39:01;1.20;;;0.80;;
19036;SDS011;9651;49.138;8.900;2023-03-26T18:43:04;2.40;;;1.20;;
19036;SDS011;9651;49.138;8.900;2023-03-26T18:47:11;1.87;;;0.93;;
19036;SDS011;9651;49.138;8.900;2023-03-26T18:51:15;2.07;;;0.67;;
19036;SDS011;9651;49.138;8.900;2023-03-26T18:55:22;1.07;;;0.70;;
19036;SDS011;9651;49.138;8.900;2023-03-26T18:59:28;1.00;;;0.70;;
19036;SDS011;9651;49.138;8.900;2023-03-26T19:03:33;1.37;;;0.70;;
19036;SDS011;9651;49.138;8.900;2023-03-26T19:07:38;1.50;;;0.73;;
19036;SDS011;9651;49.138;8.900;2023-03-26T19:11:40;1.20;;;1.00;;
19036;SDS011;9651;49.138;8.900;2023-03-26T19:15:44;0.80;;;0.60;;
19036;SDS011;9651;49.138;8.900;2023-03-26T19:19:47;1.40;;;0.70;;
19036;SDS011;9651;49.138;8.900;2023-03-26T19:23:54;0.60;;;0.40;;
19036;SDS011;9651;49.138;8.900;2023-03-26T19:27:57;0.97;;;0.50;;
19036;SDS011;9651;49.138;8.900;2023-03-26T19:32:00;0.93;;;0.57;;
19036;SDS011;9651;49.138;8.900;2023-03-26T19:36:03;0.63;;;0.30;;
19036;SDS011;9651;49.138;8.900;2023-03-26T19:40:18;0.73;;;0.40;;
19036;SDS011;9651;49.138;8.900;2023-03-26T19:44:23;2.87;;;0.50;;
19036;SDS011;9651;49.138;8.900;2023-03-26T19:48:31;2.30;;;0.60;;
19036;SDS011;9651;49.138;8.900;2023-03-26T19:52:36;1.57;;;0.40;;
19036;SDS011;9651;49.138;8.900;2023-03-26T19:56:40;1.93;;;0.60;;
19036;SDS011;9651;49.138;8.900;2023-03-26T20:00:42;1.80;;;0.60;;
19036;SDS011;9651;49.138;8.900;2023-03-26T20:04:44;1.37;;;0.70;;
19036;SDS011;9651;49.138;8.900;2023-03-26T20:08:52;0.83;;;0.40;;
19036;SDS011;9651;49.138;8.900;2023-03-26T20:12:59;2.87;;;0.40;;
19036;SDS011;9651;49.138;8.900;2023-03-26T20:17:03;0.40;;;0.40;;
19036;SDS011;9651;49.138;8.900;2023-03-26T20:21:09;0.57;;;0.50;;
19036;SDS011;9651;49.138;8.900;2023-03-26T20:25:19;2.60;;;0.70;;
19036;SDS011;9651;49.138;8.900;2023-03-26T20:29:25;1.00;;;0.60;;
19036;SDS011;9651;49.138;8.900;2023-03-26T20:33:28;2.13;;;0.90;;
19036;SDS011;9651;49.138;8.900;2023-03-26T20:37:34;1.90;;;1.43;;
19036;SDS011;9651;49.138;8.900;2023-03-26T20:41:38;4.00;;;1.10;;
19036;SDS011;9651;49.138;8.900;2023-03-26T20:45:46;1.57;;;1.17;;
19036;SDS011;9651;49.138;8.900;2023-03-26T20:49:49;3.40;;;0.70;;
19036;SDS011;9651;49.138;8.900;2023-03-26T20:53:51;2.43;;;0.80;;
19036;SDS011;9651;49.138;8.900;2023-03-26T20:57:53;1.27;;;0.80;;
19036;SDS011;9651;49.138;8.900;2023-03-26T21:01:58;2.00;;;0.80;;
19036;SDS011;9651;49.138;8.900;2023-03-26T21:06:01;1.80;;;0.70;;
19036;SDS011;9651;49.138;8.900;2023-03-26T21:10:11;3.80;;;2.00;;
19036;SDS011;9651;49.138;8.900;2023-03-26T21:14:15;0.90;;;0.50;;
19036;SDS011;9651;49.138;8.900;2023-03-26T21:18:22;1.70;;;0.90;;
19036;SDS011;9651;49.138;8.900;2023-03-26T21:22:27;1.70;;;0.63;;
19036;SDS011;9651;49.138;8.900;2023-03-26T21:26:37;3.47;;;0.90;;
19036;SDS011;9651;49.138;8.900;2023-03-26T21:30:45;0.77;;;0.70;;
19036;SDS011;9651;49.138;8.900;2023-03-26T21:34:49;1.60;;;0.80;;
19036;SDS011;9651;49.138;8.900;2023-03-26T21:38:52;2.37;;;0.83;;
19036;SDS011;9651;49.138;8.900;2023-03-26T21:42:55;1.27;;;0.90;;
19036;SDS011;9651;49.138;8.900;2023-03-26T21:46:57;2.47;;;1.37;;
19036;SDS011;9651;49.138;8.900;2023-03-26T21:51:03;2.07;;;1.20;;
19036;SDS011;9651;49.138;8.900;2023-03-26T21:55:07;7.53;;;2.37;;
19036;SDS011;9651;49.138;8.900;2023-03-26T21:59:12;3.00;;;1.30;;
19036;SDS011;9651;49.138;8.900;2023-03-26T22:03:23;2.80;;;1.10;;
19036;SDS011;9651;49.138;8.900;2023-03-26T22:07:31;1.83;;;1.00;;
19036;SDS011;9651;49.138;8.900;2023-03-26T22:11:38;2.43;;;1.17;;
19036;SDS011;9651;49.138;8.900;2023-03-26T22:15:41;4.63;;;1.00;;
19036;SDS011;9651;49.138;8.900;2023-03-26T22:19:45;1.40;;;1.03;;
19036;SDS011;9651;49.138;8.900;2023-03-26T22:23:48;2.90;;;1.27;;
19036;SDS011;9651;49.138;8.900;2023-03-26T22:27:52;2.03;;;1.17;;
19036;SDS011;9651;49.138;8.900;2023-03-26T22:31:56;2.90;;;1.53;;
19036;SDS011;9651;49.138;8.900;2023-03-26T22:35:58;2.07;;;1.13;;
19036;SDS011;9651;49.138;8.900;2023-03-26T22:40:01;3.40;;;1.40;;
19036;SDS011;9651;49.138;8.900;2023-03-26T22:44:07;2.63;;;1.30;;
19036;SDS011;9651;49.138;8.900;2023-03-26T22:48:09;1.90;;;1.27;;
19036;SDS011;9651;49.138;8.900;2023-03-26T22:52:11;4.27;;;1.20;;
19036;SDS011;9651;49.138;8.900;2023-03-26T22:56:15;1.40;;;1.30;;
19036;SDS011;9651;49.138;8.900;2023-03-26T23:00:18;1.43;;;1.20;;
19036;SDS011;9651;49.138;8.900;2023-03-26T23:04:21;1.53;;;1.30;;
19036;SDS011;9651;49.138;8.900;2023-03-26T23:08:26;3.30;;;1.40;;
19036;SDS011;9651;49.138;8.900;2023-03-26T23:12:30;1.70;;;1.60;;
19036;SDS011;9651;49.138;8.900;2023-03-26T23:16:32;2.00;;;1.40;;
19036;SDS011;9651;49.138;8.900;2023-03-26T23:20:35;1.60;;;1.20;;
19036;SDS011;9651;49.138;8.900;2023-03-26T23:24:39;1.80;;;1.30;;
19036;SDS011;9651;49.138;8.900;2023-03-26T23:28:42;2.17;;;1.50;;
19036;SDS011;9651;49.138;8.900;2023-03-26T23:32:44;1.83;;;1.10;;
19036;SDS011;9651;49.138;8.900;2023-03-26T23:36:49;2.67;;;1.10;;
19036;SDS011;9651;49.138;8.900;2023-03-26T23:40:51;1.47;;;1.33;;
19036;SDS011;9651;49.138;8.900;2023-03-26T23:44:55;2.20;;;1.43;;
19036;SDS011;9651;49.138;8.900;2023-03-26T23:48:57;1.37;;;1.23;;
19036;SDS011;9651;49.138;8.900;2023-03-26T23:53:01;1.37;;;1.23;;
19036;SDS011;9651;49.138;8.900;2023-03-26T23:57:03;1.20;;;1.10;;
